createdAt,value
2018-06-02T01:11:42.980Z,19.50
2018-06-02T01:14:11.823Z,19.50
2018-06-02T01:16:40.658Z,19.50
2018-06-02T01:19:09.503Z,19.40
2018-06-02T01:21:38.338Z,19.50
2018-06-02T01:26:36.643Z,19.40
2018-06-02T01:29:06.230Z,19.40
2018-06-02T01:31:35.073Z,19.40
2018-06-02T01:34:03.915Z,19.30
2018-06-02T01:36:32.747Z,19.20
2018-06-02T01:39:01.589Z,19.20
2018-06-02T01:41:30.426Z,19.20
2018-06-02T01:43:59.260Z,19.20
2018-06-02T01:46:28.096Z,19.10
2018-06-02T01:48:56.941Z,19.10
2018-06-02T01:51:25.780Z,19.10
2018-06-02T01:53:54.624Z,19.10
2018-06-02T01:56:23.475Z,19.00
2018-06-02T01:58:52.309Z,19.00
2018-06-02T02:01:21.204Z,19.00
2018-06-02T02:03:50.009Z,19.10
2018-06-02T02:06:18.847Z,19.10
2018-06-02T02:08:47.720Z,19.10
2018-06-02T02:11:16.511Z,19.10
2018-06-02T02:13:45.348Z,19.00
2018-06-02T02:16:14.924Z,18.90
2018-06-02T02:18:43.754Z,18.90
2018-06-02T02:21:12.598Z,18.90
2018-06-02T02:23:41.436Z,18.90
2018-06-02T02:26:11.011Z,18.80
2018-06-02T02:28:39.845Z,18.90
2018-06-02T02:31:08.688Z,18.90
2018-06-02T02:33:37.538Z,18.90
2018-06-02T02:36:06.374Z,18.80
2018-06-02T02:38:35.215Z,18.80
2018-06-02T02:41:04.069Z,18.80
2018-06-02T02:43:33.640Z,18.70
2018-06-02T02:46:02.474Z,18.80
2018-06-02T02:48:31.320Z,18.70
2018-06-02T02:51:00.158Z,18.70
2018-06-02T02:53:28.988Z,18.60
2018-06-02T02:55:57.832Z,18.60
2018-06-02T02:58:26.683Z,18.60
2018-06-02T03:00:55.533Z,18.60
2018-06-02T03:03:24.367Z,18.60
2018-06-02T03:05:53.222Z,18.60
2018-06-02T03:08:22.070Z,18.60
2018-06-02T03:10:50.923Z,18.60
2018-06-02T03:13:19.774Z,18.50
2018-06-02T03:15:48.619Z,18.40
2018-06-02T03:18:17.468Z,18.40
2018-06-02T03:20:46.302Z,18.50
2018-06-02T03:23:15.145Z,18.50
2018-06-02T03:25:43.987Z,18.40
2018-06-02T03:28:12.838Z,18.40
2018-06-02T03:30:41.687Z,18.50
2018-06-02T03:33:10.537Z,18.50
2018-06-02T03:35:39.373Z,18.40
2018-06-02T03:38:08.215Z,18.40
2018-06-02T03:40:37.071Z,18.40
2018-06-02T03:43:05.908Z,18.30
2018-06-02T03:45:35.492Z,18.30
2018-06-02T03:48:04.333Z,18.20
2018-06-02T03:50:33.185Z,18.20
2018-06-02T03:53:02.029Z,18.20
2018-06-02T03:55:30.871Z,18.20
2018-06-02T03:57:59.736Z,18.20
2018-06-02T04:00:28.573Z,18.20
2018-06-02T04:02:57.408Z,18.10
2018-06-02T04:05:26.238Z,18.20
2018-06-02T04:07:55.827Z,18.20
2018-06-02T04:10:24.657Z,18.20
2018-06-02T04:12:53.500Z,18.20
2018-06-02T04:15:22.346Z,18.20
2018-06-02T04:17:51.187Z,18.30
2018-06-02T04:20:20.046Z,18.30
2018-06-02T04:22:48.882Z,18.30
2018-06-02T04:25:18.455Z,18.20
2018-06-02T04:27:47.316Z,18.30
2018-06-02T04:30:16.164Z,18.40
2018-06-02T04:32:45.004Z,18.30
2018-06-02T04:35:13.845Z,18.30
2018-06-02T04:37:42.689Z,18.30
2018-06-02T04:40:11.528Z,18.40
2018-06-02T04:42:40.361Z,18.30
2018-06-02T04:45:09.207Z,18.20
2018-06-02T04:47:38.059Z,18.20
2018-06-02T04:50:06.891Z,18.20
2018-06-02T04:52:35.730Z,18.30
2018-06-02T04:55:04.579Z,18.30
2018-06-02T04:57:33.421Z,18.30
2018-06-02T05:00:02.245Z,18.40
2018-06-02T05:02:31.090Z,18.40
2018-06-02T05:04:59.931Z,18.40
2018-06-02T05:07:28.984Z,18.50
2018-06-02T05:09:57.715Z,18.50
2018-06-02T05:12:26.557Z,18.70
2018-06-02T05:14:55.399Z,18.70
2018-06-02T05:17:24.231Z,18.70
2018-06-02T05:19:53.084Z,18.90
2018-06-02T05:22:21.915Z,18.90
2018-06-02T05:24:50.752Z,19.00
2018-06-02T05:27:19.591Z,18.70
2018-06-02T05:29:49.168Z,18.70
2018-06-02T05:32:18.016Z,18.80
2018-06-02T05:34:46.848Z,18.80
2018-06-02T05:37:15.696Z,18.90
2018-06-02T05:39:44.546Z,19.00
2018-06-02T05:42:13.378Z,18.80
2018-06-02T05:44:42.218Z,18.80
2018-06-02T05:47:11.060Z,18.80
2018-06-02T05:49:39.906Z,19.00
2018-06-02T05:52:08.762Z,19.00
2018-06-02T05:54:37.650Z,19.10
2018-06-02T05:57:06.434Z,19.10
2018-06-02T05:59:35.274Z,19.30
2018-06-02T06:02:04.857Z,19.30
2018-06-02T06:04:33.689Z,19.40
2018-06-02T06:07:02.519Z,19.40
2018-06-02T06:09:31.368Z,19.40
2018-06-02T06:12:00.216Z,19.60
2018-06-02T06:14:29.045Z,19.70
2018-06-02T06:16:57.883Z,19.80
2018-06-02T06:19:26.774Z,19.80
2018-06-02T06:21:55.627Z,19.90
2018-06-02T06:24:24.475Z,19.90
2018-06-02T06:26:53.339Z,19.90
2018-06-02T06:29:22.148Z,20.00
2018-06-02T06:31:51.732Z,19.90
2018-06-02T06:34:20.579Z,20.00
2018-06-02T06:36:49.411Z,20.00
2018-06-02T06:39:18.262Z,19.90
2018-06-02T06:41:47.115Z,19.80
2018-06-02T06:44:16.708Z,19.80
2018-06-02T06:46:45.564Z,19.70
2018-06-02T06:49:14.401Z,19.90
2018-06-02T06:51:43.245Z,20.00
2018-06-02T06:54:12.092Z,20.10
2018-06-02T06:56:41.691Z,20.00
2018-06-02T06:59:10.529Z,20.10
2018-06-02T07:01:39.376Z,20.20
2018-06-02T07:04:08.218Z,20.30
2018-06-02T07:06:37.069Z,20.20
2018-06-02T07:09:06.020Z,20.30
2018-06-02T07:11:34.869Z,20.40
2018-06-02T07:14:03.716Z,20.50
2018-06-02T07:16:33.299Z,20.60
2018-06-02T07:19:02.140Z,20.80
2018-06-02T07:21:30.998Z,20.90
2018-06-02T07:23:59.839Z,21.00
2018-06-02T07:26:28.682Z,21.10
2018-06-02T07:28:57.529Z,21.20
2018-06-02T07:31:26.677Z,21.50
2018-06-02T07:33:55.527Z,21.50
2018-06-02T07:36:24.375Z,21.60
2018-06-02T07:38:53.232Z,21.80
2018-06-02T07:41:22.839Z,22.00
2018-06-02T07:43:52.437Z,21.90
2018-06-02T07:46:22.024Z,21.50
2018-06-02T07:48:50.873Z,21.30
2018-06-02T07:51:19.725Z,21.20
2018-06-02T07:53:48.565Z,21.30
2018-06-02T07:56:17.405Z,21.30
2018-06-02T07:58:46.271Z,21.40
2018-06-02T08:01:15.147Z,21.60
2018-06-02T08:03:43.988Z,21.70
2018-06-02T08:06:12.849Z,21.80
2018-06-02T08:08:41.723Z,21.90
2018-06-02T08:11:10.561Z,22.00
2018-06-02T08:13:40.138Z,22.00
2018-06-02T08:16:09.001Z,22.10
2018-06-02T08:18:37.851Z,22.30
2018-06-02T08:21:06.707Z,22.40
2018-06-02T08:23:35.554Z,22.50
2018-06-02T08:26:04.443Z,22.50
2018-06-02T08:28:33.235Z,22.60
2018-06-02T08:31:02.077Z,22.60
2018-06-02T08:33:30.967Z,22.60
2018-06-02T08:35:59.785Z,22.40
2018-06-02T08:38:28.624Z,22.00
2018-06-02T08:40:57.475Z,22.10
2018-06-02T08:43:26.306Z,22.20
2018-06-02T08:45:55.155Z,22.10
2018-06-02T08:48:23.997Z,22.10
2018-06-02T08:50:53.577Z,22.00
2018-06-02T08:53:22.420Z,22.00
2018-06-02T08:55:51.256Z,22.10
2018-06-02T08:58:20.090Z,22.20
2018-06-02T09:00:48.932Z,22.30
2018-06-02T09:03:17.764Z,22.40
2018-06-02T09:05:47.352Z,22.40
2018-06-02T09:08:16.189Z,22.50
2018-06-02T09:10:45.036Z,22.40
2018-06-02T09:13:13.887Z,22.60
2018-06-02T09:15:42.731Z,22.70
2018-06-02T09:18:11.567Z,22.90
2018-06-02T09:20:40.408Z,23.10
2018-06-02T09:23:09.255Z,23.40
2018-06-02T09:25:38.827Z,23.50
2018-06-02T09:28:07.663Z,23.60
2018-06-02T09:30:36.504Z,23.70
2018-06-02T09:33:05.340Z,23.90
2018-06-02T09:35:34.191Z,23.80
2018-06-02T09:38:03.039Z,24.00
2018-06-02T09:40:32.625Z,24.10
2018-06-02T09:43:01.456Z,23.80
2018-06-02T09:45:30.304Z,23.80
2018-06-02T09:50:28.583Z,23.90
2018-06-02T09:52:57.440Z,23.70
2018-06-02T09:55:26.524Z,23.80
2018-06-02T09:57:55.140Z,23.90
2018-06-02T10:00:25.839Z,23.90
2018-06-02T10:02:54.683Z,23.90
2018-06-02T10:05:23.523Z,23.90
2018-06-02T10:07:52.369Z,23.90
2018-06-02T10:10:21.215Z,23.90
2018-06-02T10:12:50.061Z,24.00
2018-06-02T10:15:18.908Z,24.20
2018-06-02T10:17:47.749Z,24.10
2018-06-02T10:20:16.603Z,23.90
2018-06-02T10:22:45.447Z,23.90
2018-06-02T10:25:14.287Z,24.00
2018-06-02T10:27:43.137Z,24.10
2018-06-02T10:30:11.976Z,24.30
2018-06-02T10:32:40.817Z,24.20
2018-06-02T10:35:09.654Z,24.20
2018-06-02T10:37:38.495Z,24.30
2018-06-02T10:40:07.334Z,24.10
2018-06-02T10:42:36.924Z,24.10
2018-06-02T10:45:05.775Z,24.10
2018-06-02T10:47:34.611Z,24.20
2018-06-02T10:50:03.469Z,24.20
2018-06-02T10:52:32.314Z,24.20
2018-06-02T10:55:01.152Z,24.50
2018-06-02T10:57:30.007Z,24.90
2018-06-02T10:59:58.851Z,24.60
2018-06-02T11:02:27.708Z,25.10
2018-06-02T11:04:56.542Z,25.20
2018-06-02T11:07:25.387Z,24.90
2018-06-02T11:09:54.230Z,25.20
2018-06-02T11:12:23.076Z,25.80
2018-06-02T11:14:51.915Z,25.70
2018-06-02T11:17:20.760Z,25.50
2018-06-02T11:19:49.604Z,25.70
2018-06-02T11:22:18.436Z,25.70
2018-06-02T11:24:47.278Z,25.50
2018-06-02T11:27:16.120Z,25.90
2018-06-02T11:29:44.969Z,26.30
2018-06-02T11:32:13.808Z,26.10
2018-06-02T11:34:42.667Z,26.30
2018-06-02T11:37:11.507Z,26.00
2018-06-02T11:39:40.350Z,26.10
2018-06-02T11:42:09.192Z,26.20
2018-06-02T11:44:38.067Z,26.40
2018-06-02T11:47:07.653Z,26.10
2018-06-02T11:49:36.496Z,26.20
2018-06-02T11:52:05.346Z,26.50
2018-06-02T11:54:34.183Z,26.20
2018-06-02T11:57:03.913Z,26.30
2018-06-02T11:59:32.797Z,25.80
2018-06-02T12:02:01.638Z,26.10
2018-06-02T12:04:30.467Z,26.00
2018-06-02T12:06:59.869Z,26.10
2018-06-02T12:09:28.715Z,26.10
2018-06-02T12:11:57.558Z,26.30
2018-06-02T12:14:26.402Z,26.30
2018-06-02T12:16:55.989Z,26.50
2018-06-02T12:19:24.864Z,26.20
2018-06-02T12:21:53.745Z,26.10
2018-06-02T12:24:22.549Z,25.80
2018-06-02T12:26:51.396Z,26.20
2018-06-02T12:29:20.228Z,26.60
2018-06-02T12:31:49.077Z,26.10
2018-06-02T12:34:17.911Z,26.00
2018-06-02T12:36:46.754Z,25.80
2018-06-02T12:39:15.592Z,25.40
2018-06-02T12:41:44.443Z,25.60
2018-06-02T12:44:13.276Z,25.70
2018-06-02T12:46:42.882Z,25.40
2018-06-02T12:49:11.736Z,25.90
2018-06-02T12:51:40.573Z,26.00
2018-06-02T12:54:10.160Z,25.90
2018-06-02T12:56:39.014Z,25.90
2018-06-02T12:59:08.161Z,25.70
2018-06-02T13:01:37.764Z,25.60
2018-06-02T13:04:07.385Z,25.70
2018-06-02T13:06:36.240Z,25.80
2018-06-02T13:09:05.993Z,25.80
2018-06-02T13:11:34.830Z,25.90
2018-06-02T13:14:03.685Z,26.30
2018-06-02T13:16:32.536Z,26.40
2018-06-02T13:19:02.132Z,26.40
2018-06-02T13:21:31.016Z,26.50
2018-06-02T13:23:59.824Z,26.50
2018-06-02T13:26:28.667Z,26.10
2018-06-02T13:28:57.510Z,26.10
2018-06-02T13:31:26.347Z,26.10
2018-06-02T13:33:55.187Z,26.20
2018-06-02T13:36:24.015Z,26.10
2018-06-02T13:38:53.040Z,26.10
2018-06-02T13:41:22.015Z,26.20
2018-06-02T13:43:50.751Z,26.80
2018-06-02T13:46:19.592Z,27.20
2018-06-02T13:48:48.427Z,27.20
2018-06-02T13:51:17.282Z,27.00
2018-06-02T13:53:46.287Z,27.30
2018-06-02T13:56:15.871Z,27.30
2018-06-02T13:58:44.720Z,26.80
2018-06-02T14:01:13.560Z,26.40
2018-06-02T14:03:42.398Z,26.20
2018-06-02T14:06:11.243Z,26.10
2018-06-02T14:08:40.083Z,26.40
2018-06-02T14:11:08.949Z,26.30
2018-06-02T14:13:37.791Z,26.90
2018-06-02T14:16:06.635Z,27.30
2018-06-02T14:18:35.536Z,27.70
2018-06-02T14:21:04.343Z,28.00
2018-06-02T14:23:33.184Z,28.40
2018-06-02T14:26:02.784Z,28.20
2018-06-02T14:28:31.618Z,28.40
2018-06-02T14:31:00.464Z,27.80
2018-06-02T14:33:30.043Z,27.40
2018-06-02T14:35:58.891Z,27.20
2018-06-02T14:38:27.728Z,26.90
2018-06-02T14:40:56.580Z,26.90
2018-06-02T14:43:25.429Z,26.70
2018-06-02T14:45:54.281Z,26.70
2018-06-02T14:48:23.123Z,26.70
2018-06-02T14:50:51.968Z,26.60
2018-06-02T14:53:20.804Z,27.00
2018-06-02T14:55:49.680Z,27.70
2018-06-02T14:58:18.486Z,27.90
2018-06-02T15:00:47.333Z,27.90
2018-06-02T15:03:16.259Z,28.10
2018-06-02T15:05:45.065Z,27.90
2018-06-02T15:08:13.907Z,28.20
2018-06-02T15:10:42.754Z,28.60
2018-06-02T15:13:11.588Z,28.80
2018-06-02T15:15:41.165Z,28.90
2018-06-02T15:18:10.014Z,28.80
2018-06-02T15:20:38.855Z,29.00
2018-06-02T15:23:07.706Z,29.50
2018-06-02T15:25:36.556Z,29.40
2018-06-02T15:28:06.265Z,29.40
2018-06-02T15:30:34.976Z,29.30
2018-06-02T15:33:03.831Z,29.40
2018-06-02T15:35:33.401Z,29.30
2018-06-02T15:38:02.246Z,29.10
2018-06-02T15:40:31.092Z,29.20
2018-06-02T15:42:59.940Z,28.60
2018-06-02T15:45:28.774Z,28.10
2018-06-02T15:47:57.615Z,27.90
2018-06-02T15:50:26.459Z,27.80
2018-06-02T15:52:55.303Z,27.50
2018-06-02T15:55:24.152Z,27.40
2018-06-02T15:57:52.991Z,27.30
2018-06-02T16:00:21.825Z,27.30
2018-06-02T16:02:50.663Z,27.20
2018-06-02T16:05:19.524Z,27.80
2018-06-02T16:07:49.100Z,28.40
2018-06-02T16:10:17.933Z,28.50
2018-06-02T16:12:46.814Z,28.60
2018-06-02T16:15:15.635Z,28.70
2018-06-02T16:17:44.474Z,28.20
2018-06-02T16:20:13.321Z,27.90
2018-06-02T16:22:42.203Z,27.50
2018-06-02T16:25:11.745Z,27.30
2018-06-02T16:30:10.027Z,26.90
2018-06-02T16:32:38.870Z,26.80
2018-06-02T16:35:07.712Z,27.20
2018-06-02T16:37:36.555Z,27.60
2018-06-02T16:40:05.467Z,27.90
2018-06-02T16:42:34.230Z,28.10
2018-06-02T16:45:03.059Z,28.00
2018-06-02T16:47:31.902Z,27.70
2018-06-02T16:50:00.754Z,27.50
2018-06-02T16:52:29.602Z,27.40
2018-06-02T16:54:58.457Z,27.20
2018-06-02T16:57:28.098Z,27.30
2018-06-02T16:59:56.891Z,27.20
2018-06-02T17:02:25.729Z,27.20
2018-06-02T17:04:55.311Z,26.90
2018-06-02T17:07:24.143Z,26.60
2018-06-02T17:09:52.983Z,26.50
2018-06-02T17:12:21.826Z,26.40
2018-06-02T17:14:51.408Z,26.40
2018-06-02T17:17:21.015Z,26.20
2018-06-02T17:19:50.622Z,26.20
2018-06-02T17:22:19.442Z,26.10
2018-06-02T17:24:48.277Z,25.90
2018-06-02T17:27:17.120Z,25.80
2018-06-02T17:29:45.958Z,25.80
2018-06-02T17:32:14.813Z,25.80
2018-06-02T17:34:43.655Z,25.90
2018-06-02T17:37:12.495Z,25.80
2018-06-02T17:39:41.335Z,25.70
2018-06-02T17:42:10.193Z,25.60
2018-06-02T17:44:39.033Z,25.70
2018-06-02T17:47:08.717Z,25.70
2018-06-02T17:49:38.467Z,25.80
2018-06-02T17:52:07.313Z,25.70
2018-06-02T17:54:36.152Z,25.50
2018-06-02T17:57:04.999Z,25.40
2018-06-02T17:59:33.882Z,25.30
2018-06-02T18:02:02.693Z,25.30
2018-06-02T18:04:31.580Z,25.20
2018-06-02T18:07:00.373Z,25.10
2018-06-02T18:09:29.209Z,25.10
2018-06-02T18:11:58.062Z,25.00
2018-06-02T18:14:26.916Z,24.90
2018-06-02T18:16:55.739Z,24.90
2018-06-02T18:19:24.588Z,24.90
2018-06-02T18:21:53.423Z,24.80
2018-06-02T18:24:22.284Z,24.80
2018-06-02T18:26:51.859Z,24.70
2018-06-02T18:29:20.734Z,24.80
2018-06-02T18:31:49.581Z,24.60
2018-06-02T18:34:19.159Z,24.60
2018-06-02T18:36:48.037Z,24.60
2018-06-02T18:39:16.851Z,24.60
2018-06-02T18:41:45.687Z,24.60
2018-06-02T18:44:14.527Z,24.60
2018-06-02T18:46:44.123Z,24.50
2018-06-02T18:49:12.968Z,24.50
2018-06-02T18:51:41.815Z,24.50
2018-06-02T18:54:11.431Z,24.40
2018-06-02T18:56:41.022Z,24.40
2018-06-02T18:59:10.621Z,24.30
2018-06-02T19:01:39.457Z,24.30
2018-06-02T19:04:08.319Z,24.20
2018-06-02T19:06:37.163Z,24.10
2018-06-02T19:09:06.009Z,24.20
2018-06-02T19:11:34.846Z,24.10
2018-06-02T19:14:03.687Z,24.10
2018-06-02T19:16:32.523Z,24.00
2018-06-02T19:19:01.356Z,23.90
2018-06-02T19:21:30.935Z,23.90
2018-06-02T19:23:59.785Z,23.90
2018-06-02T19:26:28.608Z,23.80
2018-06-02T19:28:57.442Z,23.80
2018-06-02T19:31:26.292Z,23.70
2018-06-02T19:33:55.137Z,23.70
2018-06-02T19:36:23.991Z,23.60
2018-06-02T19:38:53.577Z,23.60
2018-06-02T19:41:22.466Z,23.60
2018-06-02T19:43:51.312Z,23.60
2018-06-02T19:46:20.175Z,23.50
2018-06-02T19:48:49.759Z,23.40
2018-06-02T19:51:18.916Z,23.40
2018-06-02T19:53:47.766Z,23.40
2018-06-02T19:56:16.714Z,23.40
2018-06-02T19:58:45.558Z,23.40
2018-06-02T20:01:14.413Z,23.30
2018-06-02T20:03:43.266Z,23.30
2018-06-02T20:06:12.118Z,23.20
2018-06-02T20:08:40.959Z,23.20
2018-06-02T20:11:12.522Z,23.20
2018-06-02T20:13:38.864Z,23.30
2018-06-02T20:18:37.129Z,23.10
2018-06-02T20:21:06.008Z,23.10
2018-06-02T20:23:35.561Z,23.20
2018-06-02T20:26:05.159Z,23.10
2018-06-02T20:28:34.005Z,23.10
2018-06-02T20:31:02.863Z,23.10
2018-06-02T20:33:32.447Z,23.10
2018-06-02T20:36:01.292Z,23.10
2018-06-02T20:38:30.140Z,23.00
2018-06-02T20:40:59.874Z,22.90
2018-06-02T20:43:28.715Z,22.80
2018-06-02T20:48:28.777Z,22.60
2018-06-02T20:50:57.615Z,22.60
2018-06-02T20:53:26.464Z,22.50
2018-06-02T20:55:55.305Z,22.50
2018-06-02T20:58:24.150Z,22.40
2018-06-02T21:00:52.998Z,22.40
2018-06-02T21:03:21.874Z,22.40
2018-06-02T21:05:51.279Z,22.50
2018-06-02T21:08:20.119Z,22.40
2018-06-02T21:10:48.968Z,22.30
2018-06-02T21:13:17.930Z,22.20
2018-06-02T21:15:46.684Z,22.10
2018-06-02T21:18:15.519Z,22.10
2018-06-02T21:20:44.361Z,22.20
2018-06-02T21:23:13.222Z,22.10
2018-06-02T21:25:42.059Z,22.10
2018-06-02T21:28:10.912Z,22.00
2018-06-02T21:30:40.488Z,21.80
2018-06-02T21:33:09.376Z,21.80
2018-06-02T21:35:38.313Z,22.00
2018-06-02T21:38:07.159Z,21.80
2018-06-02T21:40:35.997Z,21.80
2018-06-02T21:43:04.860Z,21.70
2018-06-02T21:45:33.729Z,21.70
2018-06-02T21:48:02.540Z,21.70
2018-06-02T21:50:32.141Z,21.60
2018-06-02T21:53:00.971Z,21.50
2018-06-02T21:55:29.810Z,21.50
2018-06-02T21:57:58.651Z,21.50
2018-06-02T22:00:27.495Z,21.40
2018-06-02T22:02:56.325Z,21.40
2018-06-02T22:05:25.274Z,21.20
2018-06-02T22:07:54.130Z,21.20
2018-06-02T22:10:22.978Z,21.20
2018-06-02T22:12:52.550Z,21.20
2018-06-02T22:15:21.436Z,21.20
2018-06-02T22:17:50.310Z,21.20
2018-06-02T22:20:19.144Z,21.10
2018-06-02T22:22:47.982Z,21.00
2018-06-02T22:25:16.828Z,20.90
2018-06-02T22:27:45.686Z,20.80
2018-06-02T22:30:14.530Z,20.80
2018-06-02T22:32:43.375Z,20.80
2018-06-02T22:35:12.223Z,20.70
2018-06-02T22:37:41.063Z,20.70
2018-06-02T22:40:09.915Z,20.70
2018-06-02T22:42:38.759Z,20.70
2018-06-02T22:45:08.352Z,20.70
2018-06-02T22:47:37.200Z,20.80
2018-06-02T22:50:06.072Z,20.70
2018-06-02T22:52:34.881Z,20.60
2018-06-02T22:55:03.787Z,20.60
2018-06-02T22:57:32.605Z,20.60
2018-06-02T23:00:01.459Z,20.40
2018-06-02T23:02:30.324Z,20.30
2018-06-02T23:04:59.218Z,20.30
2018-06-02T23:07:28.049Z,20.20
2018-06-02T23:09:56.901Z,20.10
2018-06-02T23:12:25.733Z,20.10
2018-06-02T23:14:54.583Z,20.20
2018-06-02T23:17:23.428Z,20.10
2018-06-02T23:19:53.003Z,20.10
2018-06-02T23:22:34.421Z,20.10
2018-06-02T23:25:03.285Z,20.10
2018-06-02T23:27:32.126Z,20.00
2018-06-02T23:30:00.974Z,20.10
2018-06-02T23:32:30.549Z,20.10
2018-06-02T23:34:59.409Z,20.20
2018-06-02T23:37:28.246Z,20.10
2018-06-02T23:42:26.503Z,20.00
2018-06-02T23:44:55.345Z,20.10
2018-06-02T23:47:24.933Z,20.20
2018-06-02T23:49:53.786Z,20.20
2018-06-02T23:52:22.625Z,20.10
2018-06-02T23:54:52.209Z,20.10
2018-06-02T23:57:21.044Z,20.00
2018-06-02T23:59:49.896Z,20.00
